PWSweather.com
Personal Weather Stations
Station Observations

LlefiĆ BadalonaES

Lat: 41.44, Lon: 2.2175

Elevation: 213.254

Station Type: oregon WMR918

http://www.estacionmeteorologicabadalonallefia.com

Latest ConditionsUpdated 6:18:33 AM GMT+01:01 Tuesday, May 26, 2015
Currently Today's Max Today's Min Today's Average
Temperature 62.6°F17.0°C 66.9°F19.4°C 62.2°F16.8°C 64.4°F18.0°C
Dew Point 51.9°F11.1°C 55.0°F12.8°C 51.9°F11.1°C 54.0°F12.2°C
Winds 2.6 mph NW4.2 kmh NW 4.5 mph NW7.2 kmh NW - 2.0 mph 3.2 kmh
Wind Gusts 5.2 mph8.4 kmh 7.6 mph12.2 kmh - -
Humidity 68% 73% 64% 69%
Pressure 29.97 in1014.9 mb 29.97 in1014.9 mb 29.94 in1013.9 mb -
Hour Temp Dew Point Humidity Winds Wind Gusts Pressure Precip Precip Rate Daily Precip Total
06:18 AM 62.6°F17.0°C 51.9°F11.1°C 68% 2.6 mph NW4.2 kmh NW 5.2 mph8.4 kmh 29.97 in1014.9 mb - 0.00 in0.0 mm 0.00 in0.0 mm
06:08 AM 62.4°F16.9°C 52.1°F11.2°C 69% 3.9 mph NW6.3 kmh NW 5.2 mph8.4 kmh 29.97 in1014.9 mb - 0.00 in0.0 mm 0.00 in0.0 mm
05:58 AM 62.2°F16.8°C 52.7°F11.5°C 71% 1.6 mph NNW2.6 kmh NNW 7.0 mph11.3 kmh 29.94 in1013.9 mb - 0.00 in0.0 mm 0.00 in0.0 mm
05:48 AM 62.4°F16.9°C 53.3°F11.8°C 72% 0.5 mph NW0.8 kmh NW -- 29.94 in1013.9 mb - 0.00 in0.0 mm 0.00 in0.0 mm
05:38 AM 62.4°F16.9°C 53.6°F12.0°C 73% Calm Calm 5.8 mph9.3 kmh 29.94 in1013.9 mb - 0.00 in0.0 mm 0.00 in0.0 mm
05:28 AM 62.6°F17.0°C 53.4°F11.9°C 72% 1.6 mph W2.6 kmh W 5.2 mph8.4 kmh 29.94 in1013.9 mb - 0.00 in0.0 mm 0.00 in0.0 mm
05:18 AM 62.6°F17.0°C 53.1°F11.7°C 71% 2.9 mph NNW4.7 kmh NNW 5.2 mph8.4 kmh 29.94 in1013.9 mb - 0.00 in0.0 mm 0.00 in0.0 mm
05:08 AM 62.8°F17.1°C 53.6°F12.0°C 72% 1.5 mph NW2.4 kmh NW 5.2 mph8.4 kmh 29.94 in1013.9 mb - 0.00 in0.0 mm 0.00 in0.0 mm
04:58 AM 62.8°F17.1°C 53.6°F12.0°C 72% 2.9 mph WNW4.7 kmh WNW 2.9 mph4.7 kmh 29.94 in1013.9 mb - 0.00 in0.0 mm 0.00 in0.0 mm
04:48 AM 63.0°F17.2°C 53.8°F12.1°C 72% 2.7 mph NW4.3 kmh NW 5.2 mph8.4 kmh 29.94 in1013.9 mb - 0.00 in0.0 mm 0.00 in0.0 mm
04:38 AM 63.3°F17.4°C 54.5°F12.5°C 73% 3.8 mph NW6.1 kmh NW 6.4 mph10.3 kmh 29.94 in1013.9 mb - 0.00 in0.0 mm 0.00 in0.0 mm
04:28 AM 63.5°F17.5°C 54.7°F12.6°C 73% 2.2 mph NW3.5 kmh NW 3.5 mph5.6 kmh 29.94 in1013.9 mb - 0.00 in0.0 mm 0.00 in0.0 mm
04:18 AM 63.5°F17.5°C 54.3°F12.4°C 72% 2.9 mph NW4.7 kmh NW 6.4 mph10.3 kmh 29.94 in1013.9 mb - 0.00 in0.0 mm 0.00 in0.0 mm
04:08 AM 63.5°F17.5°C 54.7°F12.6°C 73% Calm Calm -- 29.94 in1013.9 mb - 0.00 in0.0 mm 0.00 in0.0 mm
03:58 AM 63.7°F17.6°C 54.5°F12.5°C 72% Calm Calm -- 29.94 in1013.9 mb - 0.00 in0.0 mm 0.00 in0.0 mm
03:48 AM 63.9°F17.7°C 55.0°F12.8°C 73% 2.7 mph NW4.3 kmh NW 4.1 mph6.6 kmh 29.94 in1013.9 mb - 0.00 in0.0 mm 0.00 in0.0 mm
03:38 AM 63.9°F17.7°C 55.0°F12.8°C 73% 3.8 mph NW6.1 kmh NW 7.0 mph11.3 kmh 29.94 in1013.9 mb - 0.00 in0.0 mm 0.00 in0.0 mm
03:28 AM 63.9°F17.7°C 54.7°F12.6°C 72% 4.1 mph NW6.6 kmh NW 7.6 mph12.2 kmh 29.94 in1013.9 mb - 0.00 in0.0 mm 0.00 in0.0 mm
03:18 AM 64.0°F17.8°C 54.8°F12.7°C 72% 2.7 mph NW4.3 kmh NW 4.1 mph6.6 kmh 29.94 in1013.9 mb - 0.00 in0.0 mm 0.00 in0.0 mm
03:08 AM 64.2°F17.9°C 54.6°F12.6°C 71% 3.4 mph NW5.5 kmh NW 5.2 mph8.4 kmh 29.94 in1013.9 mb - 0.00 in0.0 mm 0.00 in0.0 mm
02:58 AM 64.5°F18.1°C 54.5°F12.5°C 70% 3.7 mph NW6.0 kmh NW 5.2 mph8.4 kmh 29.94 in1013.9 mb - 0.00 in0.0 mm 0.00 in0.0 mm
02:48 AM 64.6°F18.1°C 54.6°F12.6°C 70% Calm Calm -- 29.94 in1013.9 mb - 0.00 in0.0 mm 0.00 in0.0 mm
02:38 AM 64.8°F18.2°C 54.3°F12.4°C 69% 3.5 mph NW5.6 kmh NW 5.2 mph8.4 kmh 29.94 in1013.9 mb - 0.00 in0.0 mm 0.00 in0.0 mm
02:28 AM 64.9°F18.3°C 54.5°F12.5°C 69% 3.0 mph NW4.8 kmh NW 5.2 mph8.4 kmh 29.94 in1013.9 mb - 0.00 in0.0 mm 0.00 in0.0 mm
02:18 AM 65.1°F18.4°C 54.3°F12.4°C 68% 4.5 mph NW7.2 kmh NW 6.4 mph10.3 kmh 29.94 in1013.9 mb - 0.00 in0.0 mm 0.00 in0.0 mm
02:09 AM 65.3°F18.5°C 54.1°F12.3°C 67% Calm Calm -- 29.97 in1014.9 mb - 0.00 in0.0 mm 0.00 in0.0 mm
01:58 AM 65.3°F18.5°C 53.6°F12.0°C 66% 0.8 mph NW1.3 kmh NW 4.6 mph7.4 kmh 29.97 in1014.9 mb - 0.00 in0.0 mm 0.00 in0.0 mm
01:48 AM 65.5°F18.6°C 53.8°F12.1°C 66% Calm Calm -- 29.97 in1014.9 mb - 0.00 in0.0 mm 0.00 in0.0 mm
01:38 AM 65.8°F18.8°C 53.7°F12.1°C 65% Calm Calm 4.1 mph6.6 kmh 29.97 in1014.9 mb - 0.00 in0.0 mm 0.00 in0.0 mm
01:28 AM 66.0°F18.9°C 53.9°F12.2°C 65% 2.4 mph NW3.9 kmh NW 5.2 mph8.4 kmh 29.97 in1014.9 mb - 0.00 in0.0 mm 0.00 in0.0 mm
01:18 AM 66.1°F18.9°C 53.6°F12.0°C 64% 3.0 mph NW4.8 kmh NW 4.6 mph7.4 kmh 29.97 in1014.9 mb - 0.00 in0.0 mm 0.00 in0.0 mm
01:08 AM 66.2°F19.0°C 53.7°F12.1°C 64% Calm Calm 4.1 mph6.6 kmh 29.97 in1014.9 mb - 0.00 in0.0 mm 0.00 in0.0 mm
12:58 AM 66.4°F19.1°C 53.8°F12.1°C 64% 3.1 mph NW5.0 kmh NW 4.6 mph7.4 kmh 29.97 in1014.9 mb - 0.00 in0.0 mm 0.00 in0.0 mm
12:48 AM 66.6°F19.2°C 54.0°F12.2°C 64% 2.2 mph WNW3.5 kmh WNW 4.6 mph7.4 kmh 29.97 in1014.9 mb - 0.00 in0.0 mm 0.00 in0.0 mm
12:38 AM 66.7°F19.3°C 54.2°F12.3°C 64% Calm Calm -- 29.97 in1014.9 mb - 0.00 in0.0 mm 0.00 in0.0 mm
12:28 AM 66.9°F19.4°C 54.3°F12.4°C 64% 0.8 mph NW1.3 kmh NW 2.9 mph4.7 kmh 29.97 in1014.9 mb - 0.00 in0.0 mm 0.00 in0.0 mm
12:18 AM 66.9°F19.4°C 54.3°F12.4°C 64% Calm Calm -- 29.97 in1014.9 mb - 0.00 in0.0 mm 0.00 in0.0 mm
12:08 AM 66.9°F19.4°C 54.8°F12.7°C 65% 2.7 mph SW4.3 kmh SW 5.2 mph8.4 kmh 29.97 in1014.9 mb - 0.00 in0.0 mm 0.00 in0.0 mm